sensor_id;sensor_type;location;lat;lon;timestamp;P1;durP1;ratioP1;P2;durP2;ratioP2
41546;SDS011;27271;45.412;10.852;2024-02-04T00:01:50;122.25;;;52.20;;
41546;SDS011;27271;45.412;10.852;2024-02-04T00:05:12;125.38;;;53.10;;
41546;SDS011;27271;45.412;10.852;2024-02-04T00:08:34;119.75;;;52.05;;
41546;SDS011;27271;45.412;10.852;2024-02-04T00:11:57;128.70;;;53.45;;
41546;SDS011;27271;45.412;10.852;2024-02-04T00:15:20;128.90;;;55.42;;
41546;SDS011;27271;45.412;10.852;2024-02-04T00:18:43;121.97;;;52.88;;
41546;SDS011;27271;45.412;10.852;2024-02-04T00:22:05;136.40;;;56.13;;
41546;SDS011;27271;45.412;10.852;2024-02-04T00:25:28;116.03;;;52.35;;
41546;SDS011;27271;45.412;10.852;2024-02-04T00:28:51;126.97;;;53.70;;
41546;SDS011;27271;45.412;10.852;2024-02-04T00:32:13;130.73;;;55.35;;
41546;SDS011;27271;45.412;10.852;2024-02-04T00:35:36;137.65;;;55.53;;
41546;SDS011;27271;45.412;10.852;2024-02-04T00:38:58;136.95;;;57.80;;
41546;SDS011;27271;45.412;10.852;2024-02-04T00:42:20;127.18;;;54.88;;
41546;SDS011;27271;45.412;10.852;2024-02-04T00:45:45;123.15;;;54.58;;
41546;SDS011;27271;45.412;10.852;2024-02-04T00:49:08;124.53;;;54.08;;
41546;SDS011;27271;45.412;10.852;2024-02-04T00:52:30;129.57;;;54.55;;
41546;SDS011;27271;45.412;10.852;2024-02-04T00:55:53;120.95;;;53.28;;
41546;SDS011;27271;45.412;10.852;2024-02-04T00:59:15;129.45;;;54.85;;
41546;SDS011;27271;45.412;10.852;2024-02-04T01:02:38;131.30;;;53.17;;
41546;SDS011;27271;45.412;10.852;2024-02-04T01:06:01;131.50;;;54.70;;
41546;SDS011;27271;45.412;10.852;2024-02-04T01:09:23;125.78;;;52.85;;
41546;SDS011;27271;45.412;10.852;2024-02-04T01:12:45;132.95;;;54.90;;
41546;SDS011;27271;45.412;10.852;2024-02-04T01:16:08;134.65;;;55.65;;
41546;SDS011;27271;45.412;10.852;2024-02-04T01:19:30;124.78;;;54.38;;
41546;SDS011;27271;45.412;10.852;2024-02-04T01:22:53;133.52;;;54.83;;
41546;SDS011;27271;45.412;10.852;2024-02-04T01:26:15;125.35;;;54.55;;
41546;SDS011;27271;45.412;10.852;2024-02-04T01:29:38;129.63;;;53.85;;
41546;SDS011;27271;45.412;10.852;2024-02-04T01:33:01;138.05;;;55.92;;
41546;SDS011;27271;45.412;10.852;2024-02-04T01:36:23;116.90;;;52.92;;
41546;SDS011;27271;45.412;10.852;2024-02-04T01:39:45;129.10;;;53.67;;
41546;SDS011;27271;45.412;10.852;2024-02-04T01:43:08;135.48;;;53.70;;
41546;SDS011;27271;45.412;10.852;2024-02-04T01:46:31;120.03;;;51.13;;
41546;SDS011;27271;45.412;10.852;2024-02-04T01:49:53;129.23;;;52.90;;
41546;SDS011;27271;45.412;10.852;2024-02-04T01:53:17;125.50;;;52.42;;
41546;SDS011;27271;45.412;10.852;2024-02-04T01:56:45;134.30;;;54.40;;
41546;SDS011;27271;45.412;10.852;2024-02-04T02:00:10;129.45;;;54.22;;
41546;SDS011;27271;45.412;10.852;2024-02-04T02:03:34;120.90;;;49.78;;
41546;SDS011;27271;45.412;10.852;2024-02-04T02:07:00;120.72;;;52.00;;
41546;SDS011;27271;45.412;10.852;2024-02-04T02:10:24;128.13;;;55.17;;
41546;SDS011;27271;45.412;10.852;2024-02-04T02:13:49;130.68;;;52.95;;
41546;SDS011;27271;45.412;10.852;2024-02-04T02:17:20;129.10;;;54.80;;
41546;SDS011;27271;45.412;10.852;2024-02-04T02:27:50;140.27;;;56.43;;
41546;SDS011;27271;45.412;10.852;2024-02-04T02:31:12;121.32;;;53.03;;
41546;SDS011;27271;45.412;10.852;2024-02-04T02:34:35;126.07;;;53.20;;
41546;SDS011;27271;45.412;10.852;2024-02-04T02:38:09;130.55;;;54.55;;
41546;SDS011;27271;45.412;10.852;2024-02-04T02:41:41;135.18;;;55.85;;
41546;SDS011;27271;45.412;10.852;2024-02-04T02:45:05;136.65;;;54.45;;
41546;SDS011;27271;45.412;10.852;2024-02-04T02:48:29;128.52;;;51.72;;
41546;SDS011;27271;45.412;10.852;2024-02-04T02:51:52;125.35;;;52.58;;
41546;SDS011;27271;45.412;10.852;2024-02-04T02:55:14;128.80;;;52.05;;
41546;SDS011;27271;45.412;10.852;2024-02-04T02:58:38;114.65;;;49.45;;
41546;SDS011;27271;45.412;10.852;2024-02-04T03:02:00;118.68;;;50.97;;
41546;SDS011;27271;45.412;10.852;2024-02-04T03:05:23;119.32;;;51.00;;
41546;SDS011;27271;45.412;10.852;2024-02-04T03:08:45;128.68;;;52.22;;
41546;SDS011;27271;45.412;10.852;2024-02-04T03:12:08;125.00;;;52.88;;
41546;SDS011;27271;45.412;10.852;2024-02-04T03:15:32;138.68;;;52.30;;
41546;SDS011;27271;45.412;10.852;2024-02-04T03:18:54;128.93;;;53.72;;
41546;SDS011;27271;45.412;10.852;2024-02-04T03:22:17;143.18;;;57.45;;
41546;SDS011;27271;45.412;10.852;2024-02-04T03:25:40;150.80;;;58.00;;
41546;SDS011;27271;45.412;10.852;2024-02-04T03:29:02;156.57;;;59.13;;
41546;SDS011;27271;45.412;10.852;2024-02-04T03:32:27;141.98;;;54.97;;
41546;SDS011;27271;45.412;10.852;2024-02-04T03:35:55;130.18;;;53.83;;
41546;SDS011;27271;45.412;10.852;2024-02-04T03:39:18;129.23;;;54.53;;
41546;SDS011;27271;45.412;10.852;2024-02-04T03:42:40;141.45;;;56.50;;
41546;SDS011;27271;45.412;10.852;2024-02-04T03:46:03;136.85;;;54.67;;
41546;SDS011;27271;45.412;10.852;2024-02-04T03:49:25;130.20;;;52.20;;
41546;SDS011;27271;45.412;10.852;2024-02-04T03:52:48;146.25;;;58.03;;
41546;SDS011;27271;45.412;10.852;2024-02-04T03:56:11;138.68;;;54.17;;
41546;SDS011;27271;45.412;10.852;2024-02-04T03:59:33;147.15;;;57.55;;
41546;SDS011;27271;45.412;10.852;2024-02-04T04:02:55;152.20;;;60.42;;
41546;SDS011;27271;45.412;10.852;2024-02-04T04:06:17;149.55;;;60.05;;
41546;SDS011;27271;45.412;10.852;2024-02-04T04:09:39;165.50;;;65.45;;
41546;SDS011;27271;45.412;10.852;2024-02-04T04:13:02;167.80;;;66.68;;
41546;SDS011;27271;45.412;10.852;2024-02-04T04:16:24;173.30;;;67.30;;
41546;SDS011;27271;45.412;10.852;2024-02-04T04:19:46;238.30;;;90.82;;
41546;SDS011;27271;45.412;10.852;2024-02-04T04:23:09;193.38;;;75.97;;
41546;SDS011;27271;45.412;10.852;2024-02-04T04:26:31;171.65;;;66.82;;
41546;SDS011;27271;45.412;10.852;2024-02-04T04:29:55;157.38;;;62.33;;
41546;SDS011;27271;45.412;10.852;2024-02-04T04:33:18;147.77;;;59.83;;
41546;SDS011;27271;45.412;10.852;2024-02-04T04:36:44;179.27;;;71.57;;
41546;SDS011;27271;45.412;10.852;2024-02-04T04:40:07;170.50;;;69.30;;
41546;SDS011;27271;45.412;10.852;2024-02-04T04:43:30;184.57;;;67.13;;
41546;SDS011;27271;45.412;10.852;2024-02-04T04:46:53;159.52;;;66.63;;
41546;SDS011;27271;45.412;10.852;2024-02-04T04:50:15;174.23;;;68.75;;
41546;SDS011;27271;45.412;10.852;2024-02-04T04:53:37;163.20;;;65.00;;
41546;SDS011;27271;45.412;10.852;2024-02-04T04:57:00;185.10;;;70.40;;
41546;SDS011;27271;45.412;10.852;2024-02-04T05:00:22;189.07;;;74.13;;
41546;SDS011;27271;45.412;10.852;2024-02-04T05:03:45;195.80;;;74.38;;
41546;SDS011;27271;45.412;10.852;2024-02-04T05:07:08;191.95;;;74.88;;
41546;SDS011;27271;45.412;10.852;2024-02-04T05:10:30;204.85;;;73.05;;
41546;SDS011;27271;45.412;10.852;2024-02-04T05:13:53;178.10;;;72.03;;
41546;SDS011;27271;45.412;10.852;2024-02-04T05:17:16;182.00;;;67.85;;
41546;SDS011;27271;45.412;10.852;2024-02-04T05:20:38;162.82;;;64.00;;
41546;SDS011;27271;45.412;10.852;2024-02-04T05:24:00;169.07;;;63.22;;
41546;SDS011;27271;45.412;10.852;2024-02-04T05:27:23;187.05;;;70.40;;
41546;SDS011;27271;45.412;10.852;2024-02-04T05:30:46;187.57;;;72.85;;
41546;SDS011;27271;45.412;10.852;2024-02-04T05:34:08;178.55;;;69.60;;
41546;SDS011;27271;45.412;10.852;2024-02-04T05:37:32;180.95;;;69.47;;
41546;SDS011;27271;45.412;10.852;2024-02-04T05:40:54;190.95;;;71.50;;
41546;SDS011;27271;45.412;10.852;2024-02-04T05:44:17;181.75;;;70.72;;
41546;SDS011;27271;45.412;10.852;2024-02-04T05:47:39;184.52;;;70.28;;
41546;SDS011;27271;45.412;10.852;2024-02-04T05:51:01;173.55;;;69.40;;
41546;SDS011;27271;45.412;10.852;2024-02-04T05:54:23;201.77;;;70.82;;
41546;SDS011;27271;45.412;10.852;2024-02-04T05:57:46;190.48;;;72.28;;
41546;SDS011;27271;45.412;10.852;2024-02-04T06:01:08;191.85;;;75.72;;
41546;SDS011;27271;45.412;10.852;2024-02-04T06:04:31;208.23;;;74.32;;
41546;SDS011;27271;45.412;10.852;2024-02-04T06:07:54;200.98;;;78.78;;
41546;SDS011;27271;45.412;10.852;2024-02-04T06:11:17;193.93;;;73.43;;
41546;SDS011;27271;45.412;10.852;2024-02-04T06:14:39;202.27;;;73.35;;
41546;SDS011;27271;45.412;10.852;2024-02-04T06:18:02;171.40;;;69.30;;
41546;SDS011;27271;45.412;10.852;2024-02-04T06:21:24;180.27;;;70.57;;
41546;SDS011;27271;45.412;10.852;2024-02-04T06:24:47;183.77;;;68.47;;
41546;SDS011;27271;45.412;10.852;2024-02-04T06:28:11;183.90;;;72.57;;
41546;SDS011;27271;45.412;10.852;2024-02-04T06:31:33;193.05;;;71.63;;
41546;SDS011;27271;45.412;10.852;2024-02-04T06:34:57;213.40;;;75.70;;
41546;SDS011;27271;45.412;10.852;2024-02-04T06:38:20;180.57;;;70.32;;
41546;SDS011;27271;45.412;10.852;2024-02-04T06:41:42;185.93;;;70.20;;
41546;SDS011;27271;45.412;10.852;2024-02-04T06:45:05;192.43;;;70.50;;
41546;SDS011;27271;45.412;10.852;2024-02-04T06:48:28;193.35;;;69.60;;
41546;SDS011;27271;45.412;10.852;2024-02-04T06:51:50;184.57;;;70.38;;
41546;SDS011;27271;45.412;10.852;2024-02-04T06:55:18;186.68;;;69.60;;
41546;SDS011;27271;45.412;10.852;2024-02-04T06:58:41;202.55;;;74.15;;
41546;SDS011;27271;45.412;10.852;2024-02-04T07:02:05;193.93;;;74.95;;
41546;SDS011;27271;45.412;10.852;2024-02-04T07:05:27;198.85;;;77.10;;
41546;SDS011;27271;45.412;10.852;2024-02-04T07:08:50;211.73;;;76.25;;
41546;SDS011;27271;45.412;10.852;2024-02-04T07:12:12;221.00;;;80.90;;
41546;SDS011;27271;45.412;10.852;2024-02-04T07:15:35;229.20;;;81.78;;
41546;SDS011;27271;45.412;10.852;2024-02-04T07:18:57;221.25;;;82.07;;
41546;SDS011;27271;45.412;10.852;2024-02-04T07:22:19;221.30;;;82.13;;
41546;SDS011;27271;45.412;10.852;2024-02-04T07:25:42;243.10;;;83.57;;
41546;SDS011;27271;45.412;10.852;2024-02-04T07:29:05;228.13;;;83.70;;
41546;SDS011;27271;45.412;10.852;2024-02-04T07:32:27;213.73;;;81.18;;
41546;SDS011;27271;45.412;10.852;2024-02-04T07:35:49;212.00;;;79.07;;
41546;SDS011;27271;45.412;10.852;2024-02-04T07:39:12;209.82;;;78.72;;
41546;SDS011;27271;45.412;10.852;2024-02-04T07:42:34;224.15;;;80.22;;
41546;SDS011;27271;45.412;10.852;2024-02-04T07:45:56;219.45;;;82.10;;
41546;SDS011;27271;45.412;10.852;2024-02-04T07:49:22;221.07;;;81.80;;
41546;SDS011;27271;45.412;10.852;2024-02-04T07:52:44;239.90;;;82.78;;
41546;SDS011;27271;45.412;10.852;2024-02-04T07:56:07;239.35;;;86.03;;
41546;SDS011;27271;45.412;10.852;2024-02-04T07:59:30;308.15;;;103.95;;
41546;SDS011;27271;45.412;10.852;2024-02-04T08:02:52;387.83;;;125.65;;
41546;SDS011;27271;45.412;10.852;2024-02-04T08:27:46;373.08;;;123.82;;
41546;SDS011;27271;45.412;10.852;2024-02-04T08:31:31;374.05;;;129.10;;
41546;SDS011;27271;45.412;10.852;2024-02-04T08:38:49;316.02;;;119.35;;
41546;SDS011;27271;45.412;10.852;2024-02-04T08:42:17;242.68;;;101.00;;
41546;SDS011;27271;45.412;10.852;2024-02-04T08:45:42;184.40;;;79.50;;
41546;SDS011;27271;45.412;10.852;2024-02-04T08:49:18;147.48;;;68.60;;
41546;SDS011;27271;45.412;10.852;2024-02-04T08:52:43;136.93;;;63.25;;
41546;SDS011;27271;45.412;10.852;2024-02-04T08:56:09;124.50;;;60.90;;
41546;SDS011;27271;45.412;10.852;2024-02-04T08:59:51;120.78;;;58.20;;
41546;SDS011;27271;45.412;10.852;2024-02-04T09:04:09;125.05;;;56.60;;
41546;SDS011;27271;45.412;10.852;2024-02-04T09:08:12;126.15;;;57.83;;
41546;SDS011;27271;45.412;10.852;2024-02-04T09:11:35;124.30;;;57.20;;
41546;SDS011;27271;45.412;10.852;2024-02-04T09:15:11;129.85;;;58.65;;
41546;SDS011;27271;45.412;10.852;2024-02-04T09:18:48;121.38;;;56.55;;
41546;SDS011;27271;45.412;10.852;2024-02-04T09:22:14;123.40;;;59.85;;
41546;SDS011;27271;45.412;10.852;2024-02-04T09:25:40;125.85;;;61.00;;
41546;SDS011;27271;45.412;10.852;2024-02-04T09:29:04;242.30;;;94.55;;
41546;SDS011;27271;45.412;10.852;2024-02-04T09:33:15;180.43;;;75.57;;
41546;SDS011;27271;45.412;10.852;2024-02-04T09:36:41;188.82;;;82.15;;
41546;SDS011;27271;45.412;10.852;2024-02-04T09:40:08;149.45;;;69.63;;
41546;SDS011;27271;45.412;10.852;2024-02-04T09:43:32;158.77;;;73.03;;
41546;SDS011;27271;45.412;10.852;2024-02-04T09:51:53;126.93;;;60.13;;
41546;SDS011;27271;45.412;10.852;2024-02-04T09:55:21;134.07;;;63.45;;
41546;SDS011;27271;45.412;10.852;2024-02-04T09:58:45;137.18;;;66.43;;
41546;SDS011;27271;45.412;10.852;2024-02-04T10:02:08;131.07;;;65.28;;
41546;SDS011;27271;45.412;10.852;2024-02-04T10:05:32;138.48;;;64.63;;
41546;SDS011;27271;45.412;10.852;2024-02-04T10:08:55;136.63;;;65.97;;
41546;SDS011;27271;45.412;10.852;2024-02-04T10:12:18;137.90;;;63.80;;
41546;SDS011;27271;45.412;10.852;2024-02-04T10:15:42;121.40;;;60.70;;
41546;SDS011;27271;45.412;10.852;2024-02-04T10:19:05;124.50;;;59.97;;
41546;SDS011;27271;45.412;10.852;2024-02-04T10:22:27;113.32;;;58.40;;
41546;SDS011;27271;45.412;10.852;2024-02-04T10:25:58;116.30;;;56.20;;
41546;SDS011;27271;45.412;10.852;2024-02-04T10:29:27;114.57;;;56.20;;
41546;SDS011;27271;45.412;10.852;2024-02-04T10:32:50;115.93;;;55.97;;
41546;SDS011;27271;45.412;10.852;2024-02-04T10:36:13;123.72;;;58.30;;
41546;SDS011;27271;45.412;10.852;2024-02-04T10:39:37;115.15;;;56.22;;
41546;SDS011;27271;45.412;10.852;2024-02-04T10:43:00;120.22;;;56.10;;
41546;SDS011;27271;45.412;10.852;2024-02-04T10:46:30;122.35;;;59.17;;
41546;SDS011;27271;45.412;10.852;2024-02-04T10:49:54;147.10;;;70.20;;
41546;SDS011;27271;45.412;10.852;2024-02-04T10:53:21;155.55;;;70.60;;
41546;SDS011;27271;45.412;10.852;2024-02-04T10:56:45;156.60;;;72.90;;
41546;SDS011;27271;45.412;10.852;2024-02-04T11:00:12;132.82;;;63.47;;
41546;SDS011;27271;45.412;10.852;2024-02-04T11:03:40;138.88;;;66.05;;
41546;SDS011;27271;45.412;10.852;2024-02-04T11:07:03;138.57;;;67.25;;
41546;SDS011;27271;45.412;10.852;2024-02-04T11:10:28;145.57;;;68.97;;
41546;SDS011;27271;45.412;10.852;2024-02-04T11:13:53;141.18;;;67.88;;
41546;SDS011;27271;45.412;10.852;2024-02-04T11:17:42;147.43;;;71.97;;
41546;SDS011;27271;45.412;10.852;2024-02-04T11:28:51;140.45;;;68.93;;
41546;SDS011;27271;45.412;10.852;2024-02-04T11:32:14;143.23;;;69.60;;
41546;SDS011;27271;45.412;10.852;2024-02-04T11:35:36;143.43;;;70.63;;
41546;SDS011;27271;45.412;10.852;2024-02-04T11:38:59;145.20;;;75.18;;
41546;SDS011;27271;45.412;10.852;2024-02-04T11:42:32;152.25;;;71.47;;
41546;SDS011;27271;45.412;10.852;2024-02-04T11:45:56;141.40;;;70.05;;
41546;SDS011;27271;45.412;10.852;2024-02-04T11:49:19;141.20;;;72.53;;
41546;SDS011;27271;45.412;10.852;2024-02-04T11:52:47;144.40;;;71.32;;
41546;SDS011;27271;45.412;10.852;2024-02-04T11:56:10;134.10;;;69.28;;
41546;SDS011;27271;45.412;10.852;2024-02-04T11:59:34;140.98;;;70.43;;
41546;SDS011;27271;45.412;10.852;2024-02-04T12:03:02;142.27;;;72.10;;
41546;SDS011;27271;45.412;10.852;2024-02-04T12:06:25;140.43;;;74.03;;
41546;SDS011;27271;45.412;10.852;2024-02-04T12:09:48;144.05;;;72.55;;
41546;SDS011;27271;45.412;10.852;2024-02-04T12:13:12;127.20;;;66.50;;
41546;SDS011;27271;45.412;10.852;2024-02-04T12:16:34;136.88;;;71.63;;
41546;SDS011;27271;45.412;10.852;2024-02-04T12:19:58;128.82;;;67.25;;
41546;SDS011;27271;45.412;10.852;2024-02-04T12:23:21;132.85;;;67.95;;
41546;SDS011;27271;45.412;10.852;2024-02-04T12:26:45;129.52;;;69.32;;
41546;SDS011;27271;45.412;10.852;2024-02-04T12:30:08;133.55;;;68.90;;
41546;SDS011;27271;45.412;10.852;2024-02-04T12:33:31;131.57;;;68.25;;
41546;SDS011;27271;45.412;10.852;2024-02-04T12:37:00;133.73;;;69.25;;
41546;SDS011;27271;45.412;10.852;2024-02-04T12:40:26;138.67;;;71.57;;
41546;SDS011;27271;45.412;10.852;2024-02-04T12:47:19;134.68;;;71.53;;
41546;SDS011;27271;45.412;10.852;2024-02-04T12:50:41;140.05;;;71.10;;
41546;SDS011;27271;45.412;10.852;2024-02-04T12:54:07;143.45;;;71.03;;
41546;SDS011;27271;45.412;10.852;2024-02-04T12:57:31;139.43;;;71.18;;
41546;SDS011;27271;45.412;10.852;2024-02-04T13:01:00;137.77;;;70.53;;
41546;SDS011;27271;45.412;10.852;2024-02-04T13:04:23;140.50;;;70.47;;
41546;SDS011;27271;45.412;10.852;2024-02-04T13:07:50;154.73;;;74.60;;
41546;SDS011;27271;45.412;10.852;2024-02-04T13:11:19;143.60;;;72.82;;
41546;SDS011;27271;45.412;10.852;2024-02-04T13:14:42;140.80;;;71.60;;
41546;SDS011;27271;45.412;10.852;2024-02-04T13:18:06;145.02;;;70.53;;
41546;SDS011;27271;45.412;10.852;2024-02-04T13:21:30;156.25;;;75.13;;
41546;SDS011;27271;45.412;10.852;2024-02-04T13:24:52;151.43;;;76.18;;
41546;SDS011;27271;45.412;10.852;2024-02-04T13:28:15;144.02;;;75.18;;
41546;SDS011;27271;45.412;10.852;2024-02-04T13:31:37;145.05;;;74.47;;
41546;SDS011;27271;45.412;10.852;2024-02-04T13:34:59;142.13;;;70.90;;
41546;SDS011;27271;45.412;10.852;2024-02-04T13:38:34;143.05;;;70.93;;
41546;SDS011;27271;45.412;10.852;2024-02-04T13:41:56;139.40;;;69.13;;
41546;SDS011;27271;45.412;10.852;2024-02-04T13:45:19;149.73;;;74.60;;
41546;SDS011;27271;45.412;10.852;2024-02-04T13:48:41;145.38;;;71.95;;
41546;SDS011;27271;45.412;10.852;2024-02-04T13:52:04;128.80;;;63.42;;
41546;SDS011;27271;45.412;10.852;2024-02-04T13:55:26;125.60;;;63.35;;
41546;SDS011;27271;45.412;10.852;2024-02-04T13:58:48;122.75;;;63.75;;
41546;SDS011;27271;45.412;10.852;2024-02-04T14:02:11;124.85;;;60.28;;
41546;SDS011;27271;45.412;10.852;2024-02-04T14:05:33;127.78;;;62.28;;
41546;SDS011;27271;45.412;10.852;2024-02-04T14:08:56;123.55;;;60.35;;
41546;SDS011;27271;45.412;10.852;2024-02-04T14:12:18;160.18;;;77.78;;
41546;SDS011;27271;45.412;10.852;2024-02-04T14:15:40;157.77;;;77.10;;
41546;SDS011;27271;45.412;10.852;2024-02-04T14:19:03;163.20;;;78.28;;
41546;SDS011;27271;45.412;10.852;2024-02-04T14:22:26;162.07;;;79.53;;
41546;SDS011;27271;45.412;10.852;2024-02-04T14:25:49;166.05;;;76.88;;
41546;SDS011;27271;45.412;10.852;2024-02-04T14:29:12;158.95;;;76.10;;
41546;SDS011;27271;45.412;10.852;2024-02-04T14:32:35;164.93;;;79.32;;
41546;SDS011;27271;45.412;10.852;2024-02-04T14:35:58;163.15;;;75.63;;
41546;SDS011;27271;45.412;10.852;2024-02-04T14:39:22;165.00;;;80.55;;
41546;SDS011;27271;45.412;10.852;2024-02-04T14:42:44;171.15;;;83.15;;
41546;SDS011;27271;45.412;10.852;2024-02-04T14:46:06;167.82;;;82.50;;
41546;SDS011;27271;45.412;10.852;2024-02-04T14:49:29;172.68;;;81.53;;
41546;SDS011;27271;45.412;10.852;2024-02-04T14:52:52;161.55;;;81.22;;
41546;SDS011;27271;45.412;10.852;2024-02-04T14:56:15;174.68;;;81.05;;
41546;SDS011;27271;45.412;10.852;2024-02-04T14:59:38;170.02;;;80.32;;
41546;SDS011;27271;45.412;10.852;2024-02-04T15:03:00;169.95;;;81.47;;
41546;SDS011;27271;45.412;10.852;2024-02-04T15:06:23;176.70;;;81.90;;
41546;SDS011;27271;45.412;10.852;2024-02-04T15:09:45;170.65;;;81.38;;
41546;SDS011;27271;45.412;10.852;2024-02-04T15:13:08;178.88;;;80.32;;
41546;SDS011;27271;45.412;10.852;2024-02-04T15:16:30;181.13;;;84.15;;
41546;SDS011;27271;45.412;10.852;2024-02-04T15:19:53;167.55;;;82.40;;
41546;SDS011;27271;45.412;10.852;2024-02-04T15:23:15;176.90;;;81.10;;
41546;SDS011;27271;45.412;10.852;2024-02-04T15:26:38;170.18;;;79.13;;
41546;SDS011;27271;45.412;10.852;2024-02-04T15:30:02;173.10;;;82.95;;
41546;SDS011;27271;45.412;10.852;2024-02-04T15:33:25;164.05;;;80.20;;
41546;SDS011;27271;45.412;10.852;2024-02-04T15:36:50;170.55;;;80.68;;
41546;SDS011;27271;45.412;10.852;2024-02-04T15:40:13;167.63;;;80.35;;
41546;SDS011;27271;45.412;10.852;2024-02-04T15:43:35;177.68;;;83.13;;
41546;SDS011;27271;45.412;10.852;2024-02-04T15:46:57;168.27;;;81.68;;
41546;SDS011;27271;45.412;10.852;2024-02-04T15:50:21;175.25;;;83.45;;
41546;SDS011;27271;45.412;10.852;2024-02-04T15:53:43;183.25;;;83.32;;
41546;SDS011;27271;45.412;10.852;2024-02-04T15:57:06;178.45;;;81.75;;
41546;SDS011;27271;45.412;10.852;2024-02-04T16:00:30;181.40;;;85.03;;
41546;SDS011;27271;45.412;10.852;2024-02-04T16:03:54;188.30;;;86.53;;
41546;SDS011;27271;45.412;10.852;2024-02-04T16:07:17;187.35;;;83.82;;
41546;SDS011;27271;45.412;10.852;2024-02-04T16:10:41;183.00;;;86.15;;
41546;SDS011;27271;45.412;10.852;2024-02-04T16:14:06;186.82;;;83.65;;
41546;SDS011;27271;45.412;10.852;2024-02-04T16:17:31;181.48;;;83.25;;
41546;SDS011;27271;45.412;10.852;2024-02-04T16:20:55;188.73;;;86.95;;
41546;SDS011;27271;45.412;10.852;2024-02-04T16:24:17;185.05;;;85.85;;
41546;SDS011;27271;45.412;10.852;2024-02-04T16:27:39;187.88;;;84.32;;
41546;SDS011;27271;45.412;10.852;2024-02-04T16:31:01;194.55;;;86.38;;
41546;SDS011;27271;45.412;10.852;2024-02-04T16:34:24;182.07;;;85.50;;
41546;SDS011;27271;45.412;10.852;2024-02-04T16:37:47;195.65;;;85.78;;
41546;SDS011;27271;45.412;10.852;2024-02-04T16:41:09;192.90;;;86.22;;
41546;SDS011;27271;45.412;10.852;2024-02-04T16:44:31;205.45;;;91.40;;
41546;SDS011;27271;45.412;10.852;2024-02-04T16:47:53;189.63;;;87.07;;
41546;SDS011;27271;45.412;10.852;2024-02-04T16:51:15;194.57;;;87.50;;
41546;SDS011;27271;45.412;10.852;2024-02-04T16:54:38;197.07;;;90.85;;
41546;SDS011;27271;45.412;10.852;2024-02-04T16:58:00;200.40;;;90.97;;
41546;SDS011;27271;45.412;10.852;2024-02-04T17:01:22;204.35;;;90.20;;
41546;SDS011;27271;45.412;10.852;2024-02-04T17:04:46;201.38;;;89.65;;
41546;SDS011;27271;45.412;10.852;2024-02-04T17:08:13;203.48;;;88.18;;
41546;SDS011;27271;45.412;10.852;2024-02-04T17:11:36;205.57;;;92.28;;
41546;SDS011;27271;45.412;10.852;2024-02-04T17:14:59;205.65;;;92.68;;
41546;SDS011;27271;45.412;10.852;2024-02-04T17:18:36;208.85;;;92.43;;
41546;SDS011;27271;45.412;10.852;2024-02-04T17:25:40;204.05;;;88.93;;
41546;SDS011;27271;45.412;10.852;2024-02-04T17:29:05;214.25;;;94.70;;
41546;SDS011;27271;45.412;10.852;2024-02-04T17:32:27;219.98;;;93.75;;
41546;SDS011;27271;45.412;10.852;2024-02-04T17:35:52;218.18;;;95.40;;
41546;SDS011;27271;45.412;10.852;2024-02-04T17:39:14;223.85;;;98.95;;
41546;SDS011;27271;45.412;10.852;2024-02-04T17:42:38;229.05;;;97.82;;
41546;SDS011;27271;45.412;10.852;2024-02-04T17:46:02;247.95;;;103.13;;
41546;SDS011;27271;45.412;10.852;2024-02-04T17:49:26;262.20;;;109.07;;
41546;SDS011;27271;45.412;10.852;2024-02-04T17:52:48;269.23;;;109.65;;
41546;SDS011;27271;45.412;10.852;2024-02-04T17:56:16;247.85;;;105.93;;
41546;SDS011;27271;45.412;10.852;2024-02-04T17:59:39;251.38;;;105.22;;
41546;SDS011;27271;45.412;10.852;2024-02-04T18:03:03;253.93;;;104.97;;
41546;SDS011;27271;45.412;10.852;2024-02-04T18:06:26;258.25;;;105.57;;
41546;SDS011;27271;45.412;10.852;2024-02-04T18:09:48;253.77;;;106.30;;
41546;SDS011;27271;45.412;10.852;2024-02-04T18:16:05;251.00;;;103.72;;
41546;SDS011;27271;45.412;10.852;2024-02-04T18:19:29;246.35;;;102.30;;
41546;SDS011;27271;45.412;10.852;2024-02-04T18:22:51;259.65;;;107.78;;
41546;SDS011;27271;45.412;10.852;2024-02-04T18:26:24;249.57;;;106.43;;
41546;SDS011;27271;45.412;10.852;2024-02-04T18:29:49;244.27;;;102.25;;
41546;SDS011;27271;45.412;10.852;2024-02-04T18:33:14;253.15;;;103.65;;
41546;SDS011;27271;45.412;10.852;2024-02-04T18:36:37;245.63;;;104.68;;
41546;SDS011;27271;45.412;10.852;2024-02-04T18:40:00;258.17;;;106.68;;
41546;SDS011;27271;45.412;10.852;2024-02-04T18:43:26;257.00;;;111.25;;
41546;SDS011;27271;45.412;10.852;2024-02-04T18:46:48;265.52;;;106.97;;
41546;SDS011;27271;45.412;10.852;2024-02-04T18:50:11;256.65;;;108.50;;
41546;SDS011;27271;45.412;10.852;2024-02-04T18:53:37;257.27;;;106.53;;
41546;SDS011;27271;45.412;10.852;2024-02-04T18:57:02;262.58;;;105.35;;
41546;SDS011;27271;45.412;10.852;2024-02-04T19:00:25;249.15;;;105.18;;
41546;SDS011;27271;45.412;10.852;2024-02-04T19:03:48;255.40;;;104.97;;
41546;SDS011;27271;45.412;10.852;2024-02-04T19:07:10;261.35;;;108.22;;
41546;SDS011;27271;45.412;10.852;2024-02-04T19:10:34;259.20;;;108.00;;
41546;SDS011;27271;45.412;10.852;2024-02-04T19:13:58;253.75;;;106.70;;
41546;SDS011;27271;45.412;10.852;2024-02-04T19:17:20;259.02;;;107.13;;
41546;SDS011;27271;45.412;10.852;2024-02-04T19:20:42;269.70;;;109.32;;
41546;SDS011;27271;45.412;10.852;2024-02-04T19:24:05;254.80;;;105.50;;
41546;SDS011;27271;45.412;10.852;2024-02-04T19:27:29;251.65;;;102.82;;
41546;SDS011;27271;45.412;10.852;2024-02-04T19:30:52;259.58;;;107.57;;
41546;SDS011;27271;45.412;10.852;2024-02-04T19:34:16;243.32;;;100.53;;
41546;SDS011;27271;45.412;10.852;2024-02-04T19:37:39;910.20;;;392.90;;
41546;SDS011;27271;45.412;10.852;2024-02-04T19:41:04;370.83;;;150.02;;
41546;SDS011;27271;45.412;10.852;2024-02-04T19:44:27;275.67;;;111.43;;
41546;SDS011;27271;45.412;10.852;2024-02-04T19:47:49;274.33;;;108.03;;
41546;SDS011;27271;45.412;10.852;2024-02-04T19:51:12;268.75;;;102.55;;
41546;SDS011;27271;45.412;10.852;2024-02-04T19:54:36;248.65;;;99.90;;
41546;SDS011;27271;45.412;10.852;2024-02-04T19:57:58;255.65;;;103.93;;
41546;SDS011;27271;45.412;10.852;2024-02-04T20:01:24;272.63;;;106.22;;
41546;SDS011;27271;45.412;10.852;2024-02-04T20:04:47;274.63;;;106.65;;
41546;SDS011;27271;45.412;10.852;2024-02-04T20:08:09;267.52;;;106.18;;
41546;SDS011;27271;45.412;10.852;2024-02-04T20:11:32;269.73;;;104.57;;